Time;durP1;ratioP1;P1;durP2;ratioP2;P2;SDS_P1;SDS_P2;PMS_P1;PMS_P2;Temp;Humidity;BMP_temperature;BMP_pressure;BME280_temperature;BME280_humidity;BME280_pressure;Samples;Min_cycle;Max_cycle;Signal;HPM_P1;HPM_P2
2021/03/04 00:02:03;;;;;;;9.83;8.17;;;9.70;86.80;;;;;;10510207;28;20236;-80
2021/03/04 00:07:05;;;;;;;8.40;7.50;;;9.70;86.40;;;;;;10504623;28;20647;-79
2021/03/04 00:12:08;;;;;;;9.97;7.93;;;9.70;85.90;;;;;;10480465;28;20286;-80
2021/03/04 00:17:10;;;;;;;9.40;6.43;;;9.80;85.40;;;;;;10466259;28;20219;-79
2021/03/04 00:22:12;;;;;;;6.63;4.97;;;9.80;84.40;;;;;;10483647;28;20212;-80
2021/03/04 00:27:14;;;;;;;10.83;6.67;;;9.70;84.20;;;;;;10480198;28;20283;-80
2021/03/04 00:32:17;;;;;;;9.93;6.87;;;9.70;84.90;;;;;;10479371;28;20738;-79
2021/03/04 00:37:18;;;;;;;7.63;6.80;;;9.70;83.80;;;;;;10496074;28;20216;-79
2021/03/04 00:42:21;;;;;;;9.10;6.20;;;9.70;84.10;;;;;;10475585;28;20290;-79
2021/03/04 00:47:22;;;;;;;7.57;6.40;;;9.70;83.50;;;;;;10460072;28;20296;-80
2021/03/04 00:52:24;;;;;;;13.27;6.57;;;9.80;83.30;;;;;;10460177;28;20223;-79
2021/03/04 00:57:26;;;;;;;9.33;6.77;;;9.80;83.30;;;;;;10463342;28;20339;-80
2021/03/04 01:02:28;;;;;;;7.83;6.53;;;9.80;82.90;;;;;;10482247;28;20248;-79
2021/03/04 01:07:29;;;;;;;7.80;5.93;;;9.70;82.80;;;;;;10479044;28;20201;-80
2021/03/04 01:12:32;;;;;;;7.53;6.10;;;9.70;82.10;;;;;;10470886;28;20657;-79
2021/03/04 01:17:33;;;;;;;7.60;4.80;;;9.60;82.40;;;;;;10483221;28;20273;-79
2021/03/04 01:22:35;;;;;;;7.90;6.33;;;9.60;82.40;;;;;;10465334;28;20231;-79
2021/03/04 01:27:38;;;;;;;7.37;5.80;;;9.60;82.40;;;;;;10468952;28;20702;-79
2021/03/04 01:32:40;;;;;;;8.43;5.70;;;9.60;82.00;;;;;;10463573;28;20231;-80
2021/03/04 01:37:41;;;;;;;9.40;5.87;;;9.60;82.20;;;;;;10490792;28;20705;-79
2021/03/04 01:42:44;;;;;;;8.23;5.43;;;9.60;83.50;;;;;;10449989;28;20350;-80
2021/03/04 01:47:49;;;;;;;6.50;5.40;;;9.50;82.70;;;;;;10466051;28;20270;-80
2021/03/04 01:52:50;;;;;;;6.87;6.13;;;9.50;82.40;;;;;;10468354;28;20693;-80
2021/03/04 01:57:55;;;;;;;8.13;6.37;;;9.50;82.20;;;;;;10464530;28;20220;-79
2021/03/04 02:02:57;;;;;;;7.83;5.70;;;9.50;82.20;;;;;;10461605;28;20327;-80
2021/03/04 02:08:06;;;;;;;8.60;6.80;;;9.50;82.40;;;;;;10476860;28;20204;-80
2021/03/04 02:13:19;;;;;;;7.20;5.83;;;9.50;82.40;;;;;;10479193;28;20221;-80
2021/03/04 02:18:25;;;;;;;6.83;5.87;;;9.50;82.00;;;;;;10487288;28;20273;-80
2021/03/04 02:23:47;;;;;;;7.63;6.83;;;9.40;82.80;;;;;;10476765;28;20232;-81
2021/03/04 02:28:55;;;;;;;8.03;7.23;;;9.40;82.60;;;;;;10483771;28;20200;-80
2021/03/04 02:33:58;;;;;;;9.10;6.03;;;9.30;82.40;;;;;;10475029;28;20217;-81
2021/03/04 02:39:03;;;;;;;8.20;7.40;;;9.30;82.50;;;;;;10476031;28;20222;-81
2021/03/04 02:44:08;;;;;;;9.77;8.13;;;9.30;82.50;;;;;;10485482;28;20622;-81
2021/03/04 02:49:10;;;;;;;9.00;8.00;;;9.20;82.70;;;;;;10475143;28;20252;-80
2021/03/04 02:54:12;;;;;;;11.13;7.87;;;9.20;82.30;;;;;;10483953;28;20212;-80
2021/03/04 02:59:15;;;;;;;9.57;7.77;;;9.20;82.30;;;;;;10483431;28;20300;-80
2021/03/04 03:04:18;;;;;;;8.73;7.37;;;9.20;81.50;;;;;;10481426;28;20227;-81
2021/03/04 03:09:21;;;;;;;9.13;8.13;;;9.30;81.70;;;;;;10509506;28;20203;-81
2021/03/04 03:14:24;;;;;;;7.83;6.57;;;9.30;81.60;;;;;;10478056;28;20216;-80
2021/03/04 03:19:26;;;;;;;10.53;7.40;;;9.30;81.60;;;;;;10496642;28;20596;-80
2021/03/04 03:24:27;;;;;;;7.87;6.57;;;9.30;81.10;;;;;;10496359;28;20213;-80
2021/03/04 03:29:30;;;;;;;7.33;6.63;;;9.20;81.50;;;;;;10512559;28;20192;-80
2021/03/04 03:34:32;;;;;;;7.73;6.73;;;9.20;82.00;;;;;;10512568;28;20696;-81
2021/03/04 03:39:34;;;;;;;7.03;6.37;;;9.10;81.80;;;;;;10512993;28;20325;-80
2021/03/04 03:44:38;;;;;;;9.77;6.83;;;9.20;81.20;;;;;;10513237;28;20225;-80
2021/03/04 03:49:41;;;;;;;7.83;6.53;;;9.20;82.30;;;;;;10506875;28;20201;-80
2021/03/04 03:54:43;;;;;;;7.80;6.53;;;9.20;81.30;;;;;;10506141;28;20232;-81
2021/03/04 03:59:46;;;;;;;7.70;6.90;;;9.20;81.50;;;;;;10507158;28;20244;-80
2021/03/04 04:04:48;;;;;;;8.77;6.77;;;9.20;82.30;;;;;;10502378;28;20696;-80
2021/03/04 04:09:49;;;;;;;7.10;6.40;;;9.20;81.50;;;;;;10500148;28;20204;-81
2021/03/04 04:14:52;;;;;;;7.90;6.13;;;9.20;81.20;;;;;;10504784;28;20307;-81
2021/03/04 04:19:54;;;;;;;14.40;6.50;;;9.20;80.60;;;;;;10506954;28;20220;-81
2021/03/04 04:24:57;;;;;;;6.33;5.67;;;9.10;80.10;;;;;;10511838;28;20608;-80
2021/03/04 04:29:59;;;;;;;9.20;7.00;;;9.10;80.00;;;;;;10511394;28;20202;-81
2021/03/04 04:35:01;;;;;;;7.37;6.60;;;9.00;79.80;;;;;;10477257;28;20631;-81
2021/03/04 04:40:04;;;;;;;7.20;6.53;;;9.00;80.30;;;;;;10506008;28;20215;-80
2021/03/04 04:45:09;;;;;;;10.43;7.67;;;8.90;80.50;;;;;;10501607;28;20216;-81
2021/03/04 04:50:11;;;;;;;7.00;6.20;;;8.90;81.10;;;;;;10503713;28;20663;-81
2021/03/04 04:55:13;;;;;;;7.33;6.53;;;8.90;81.20;;;;;;10515436;28;20220;-80
2021/03/04 05:00:17;;;;;;;7.90;7.10;;;8.80;81.60;;;;;;10505356;28;20196;-80
2021/03/04 05:05:19;;;;;;;9.90;6.67;;;8.80;81.10;;;;;;10481868;28;20346;-81
2021/03/04 05:10:20;;;;;;;10.93;6.73;;;8.80;81.60;;;;;;10508133;28;20208;-80
2021/03/04 05:15:23;;;;;;;8.87;7.20;;;8.80;81.00;;;;;;10482685;28;20625;-81
2021/03/04 05:20:24;;;;;;;8.73;7.30;;;8.80;81.80;;;;;;10507759;28;20208;-80
2021/03/04 05:25:26;;;;;;;6.80;6.13;;;8.70;81.80;;;;;;10502805;28;20208;-80
2021/03/04 05:30:29;;;;;;;10.10;7.40;;;8.70;81.40;;;;;;10504845;28;20215;-81
2021/03/04 05:35:30;;;;;;;8.70;7.63;;;8.70;81.40;;;;;;10525451;28;20311;-80
2021/03/04 05:40:32;;;;;;;12.83;7.60;;;8.60;82.10;;;;;;10506221;28;20290;-80
2021/03/04 05:45:35;;;;;;;9.40;7.90;;;8.60;82.20;;;;;;10504454;28;20242;-80
2021/03/04 05:50:42;;;;;;;12.30;7.20;;;8.50;82.80;;;;;;10507727;28;20668;-80
2021/03/04 05:55:45;;;;;;;9.53;8.60;;;8.50;82.60;;;;;;10463947;28;20215;-80
2021/03/04 06:00:48;;;;;;;11.10;8.60;;;8.50;82.10;;;;;;10478206;28;20301;-80
2021/03/04 06:05:49;;;;;;;10.10;8.13;;;8.50;82.20;;;;;;10484378;28;20224;-80
2021/03/04 06:10:51;;;;;;;8.23;7.43;;;8.40;82.50;;;;;;10500017;28;20224;-80
2021/03/04 06:15:54;;;;;;;9.80;8.00;;;8.30;82.30;;;;;;10500011;28;20222;-80
2021/03/04 06:20:55;;;;;;;9.63;7.90;;;8.30;82.10;;;;;;10483138;28;20739;-80
2021/03/04 06:25:57;;;;;;;9.00;7.80;;;8.30;83.00;;;;;;10495773;28;20250;-80
2021/03/04 06:31:00;;;;;;;13.00;8.17;;;8.30;82.20;;;;;;10501090;28;20656;-79
2021/03/04 06:36:12;;;;;;;11.30;8.40;;;8.30;82.10;;;;;;10496577;28;20216;-79
2021/03/04 06:41:21;;;;;;;12.80;8.47;;;8.30;81.70;;;;;;10494561;28;20226;-79
2021/03/04 06:46:24;;;;;;;11.90;7.63;;;8.40;82.00;;;;;;10498741;28;20200;-79
2021/03/04 06:51:25;;;;;;;10.40;8.23;;;8.50;81.80;;;;;;10497700;28;20227;-79
2021/03/04 06:56:29;;;;;;;12.77;8.83;;;8.60;81.90;;;;;;10495397;28;20208;-79
2021/03/04 07:01:39;;;;;;;11.67;8.70;;;8.70;81.70;;;;;;10503844;28;20228;-79
2021/03/04 07:06:45;;;;;;;11.10;8.17;;;8.80;81.60;;;;;;10501130;28;20207;-79
2021/03/04 07:11:47;;;;;;;7.80;6.70;;;8.90;81.40;;;;;;10505415;28;20216;-79
2021/03/04 07:16:50;;;;;;;12.00;7.07;;;9.00;82.20;;;;;;10488691;28;20672;-79
2021/03/04 07:21:53;;;;;;;10.30;7.93;;;9.20;81.90;;;;;;10487265;28;20241;-79
2021/03/04 07:26:56;;;;;;;12.20;9.00;;;9.40;82.50;;;;;;10506168;28;20197;-79
2021/03/04 07:31:59;;;;;;;13.73;8.70;;;9.60;82.70;;;;;;10503060;28;20256;-79
2021/03/04 07:37:01;;;;;;;10.50;8.53;;;9.80;82.40;;;;;;10498685;28;20212;-79
2021/03/04 07:42:03;;;;;;;9.50;7.67;;;9.90;81.80;;;;;;10489858;28;20224;-79
2021/03/04 07:47:09;;;;;;;10.27;8.33;;;10.00;79.80;;;;;;10495266;28;20200;-79
2021/03/04 07:52:13;;;;;;;13.87;8.90;;;10.20;79.50;;;;;;10504203;28;20219;-79
2021/03/04 07:57:16;;;;;;;10.27;8.17;;;10.20;79.40;;;;;;10499199;28;20220;-79
2021/03/04 08:02:29;;;;;;;14.77;8.33;;;10.40;77.60;;;;;;10515834;22;20215;-78
2021/03/04 08:07:31;;;;;;;11.23;7.87;;;10.60;76.90;;;;;;10534199;28;20635;-77
2021/03/04 08:12:43;;;;;;;13.50;9.20;;;10.70;75.10;;;;;;10547600;28;20236;-77
2021/03/04 08:17:46;;;;;;;10.00;7.57;;;10.80;71.50;;;;;;10528380;28;20242;-78
2021/03/04 08:22:48;;;;;;;9.63;7.50;;;11.00;72.40;;;;;;10547568;28;20350;-80
2021/03/04 08:27:51;;;;;;;9.73;8.30;;;11.10;72.90;;;;;;10529499;28;20195;-80
2021/03/04 08:32:54;;;;;;;9.20;6.87;;;11.20;74.50;;;;;;10545916;28;20269;-80
2021/03/04 08:38:02;;;;;;;9.37;7.50;;;11.30;72.60;;;;;;10547727;28;20231;-80
2021/03/04 08:43:11;;;;;;;9.03;7.40;;;11.40;68.90;;;;;;10547151;28;20644;-81
2021/03/04 08:48:14;;;;;;;9.40;7.40;;;11.50;71.80;;;;;;10546375;28;20264;-78
2021/03/04 08:53:17;;;;;;;13.00;7.03;;;11.60;72.10;;;;;;10547459;28;20276;-78
2021/03/04 08:58:20;;;;;;;8.43;6.57;;;11.70;68.90;;;;;;10530640;28;20208;-77
2021/03/04 09:03:24;;;;;;;6.70;6.00;;;11.90;68.40;;;;;;10547245;28;20228;-78
2021/03/04 09:08:33;;;;;;;7.30;5.90;;;12.00;70.00;;;;;;10546477;28;20196;-78
2021/03/04 09:13:35;;;;;;;10.63;7.70;;;12.10;69.70;;;;;;10535571;28;20243;-81
2021/03/04 09:18:43;;;;;;;7.03;5.40;;;12.30;67.10;;;;;;10524838;28;20220;-81
2021/03/04 09:23:45;;;;;;;8.63;7.00;;;12.50;67.30;;;;;;10524285;28;20474;-80
2021/03/04 09:28:48;;;;;;;8.90;7.10;;;12.50;68.40;;;;;;10530161;28;20229;-80
2021/03/04 09:33:56;;;;;;;10.80;8.20;;;12.60;66.90;;;;;;10528975;28;20268;-80
2021/03/04 09:38:58;;;;;;;9.30;6.60;;;12.70;69.40;;;;;;10546698;28;20215;-80
2021/03/04 09:44:03;;;;;;;17.30;7.73;;;12.80;66.90;;;;;;10545966;28;20223;-81
2021/03/04 09:49:10;;;;;;;8.80;6.20;;;13.00;65.50;;;;;;10547155;28;20286;-80
2021/03/04 09:54:23;;;;;;;9.50;6.03;;;13.00;67.00;;;;;;10545305;28;20204;-80
2021/03/04 09:59:25;;;;;;;10.33;6.80;;;13.20;67.00;;;;;;10547440;28;20227;-80
2021/03/04 10:04:28;;;;;;;13.27;7.57;;;13.30;65.40;;;;;;10534491;28;20310;-80
2021/03/04 10:09:33;;;;;;;9.90;6.83;;;13.40;66.70;;;;;;10511777;28;20180;-80
2021/03/04 10:14:43;;;;;;;10.03;7.27;;;13.50;68.00;;;;;;10531095;28;20223;-80
2021/03/04 10:19:46;;;;;;;9.20;7.00;;;13.50;66.90;;;;;;10535202;28;20310;-80
2021/03/04 10:24:47;;;;;;;12.47;6.23;;;13.40;66.70;;;;;;10532449;28;20679;-80
2021/03/04 10:29:49;;;;;;;9.83;7.37;;;13.40;66.10;;;;;;10537438;28;20231;-79
2021/03/04 10:34:52;;;;;;;14.90;8.33;;;13.30;67.30;;;;;;10534874;28;20219;-79
2021/03/04 10:39:53;;;;;;;18.63;8.63;;;13.30;67.70;;;;;;10539479;28;20290;-80
2021/03/04 10:44:56;;;;;;;12.50;8.63;;;13.30;70.00;;;;;;10544021;28;20230;-80
2021/03/04 10:49:58;;;;;;;15.20;8.60;;;13.30;69.80;;;;;;10539973;28;20192;-79
2021/03/04 10:55:00;;;;;;;14.87;8.97;;;13.20;69.90;;;;;;10540477;28;20242;-80
2021/03/04 11:00:03;;;;;;;24.23;10.77;;;13.30;71.30;;;;;;10541030;28;20220;-80
2021/03/04 11:05:07;;;;;;;13.67;9.47;;;13.30;72.80;;;;;;10529567;28;20243;-80
2021/03/04 11:10:10;;;;;;;18.30;9.80;;;13.20;73.80;;;;;;10529838;28;20268;-79
2021/03/04 11:15:13;;;;;;;12.60;8.37;;;13.20;72.10;;;;;;10528869;28;20212;-80
2021/03/04 11:20:15;;;;;;;13.23;8.13;;;13.30;70.80;;;;;;10530905;28;20231;-80
2021/03/04 11:25:17;;;;;;;14.40;8.87;;;13.50;69.30;;;;;;10527548;28;20228;-80
2021/03/04 11:30:20;;;;;;;17.50;9.30;;;13.60;69.60;;;;;;10532456;28;20216;-80
2021/03/04 11:35:27;;;;;;;12.10;8.83;;;13.70;69.20;;;;;;10529963;28;20657;-80
2021/03/04 11:40:28;;;;;;;17.13;9.77;;;13.90;69.90;;;;;;10532867;28;20220;-79
2021/03/04 11:45:30;;;;;;;13.10;8.87;;;14.20;70.00;;;;;;10535836;28;20309;-79
2021/03/04 11:50:32;;;;;;;14.50;8.60;;;14.50;69.30;;;;;;10534130;28;20238;-79
2021/03/04 11:55:34;;;;;;;17.00;9.07;;;14.70;69.60;;;;;;10536518;28;20227;-79
2021/03/04 12:00:36;;;;;;;16.60;8.80;;;14.80;68.30;;;;;;10537905;28;20215;-79
2021/03/04 12:05:38;;;;;;;13.03;8.87;;;14.80;67.20;;;;;;10544337;28;20349;-79
2021/03/04 12:10:40;;;;;;;11.23;8.87;;;14.90;67.10;;;;;;10547573;28;20196;-79
2021/03/04 12:15:42;;;;;;;13.77;9.20;;;15.00;67.80;;;;;;10582553;28;20222;-79
2021/03/04 12:20:44;;;;;;;11.63;8.63;;;14.90;67.20;;;;;;10563040;28;20226;-79
2021/03/04 12:25:46;;;;;;;12.50;7.70;;;14.90;67.60;;;;;;10564286;28;20230;-79
2021/03/04 12:30:48;;;;;;;11.87;6.13;;;15.00;65.90;;;;;;10545415;28;20195;-79
2021/03/04 12:35:50;;;;;;;11.93;7.03;;;15.00;64.80;;;;;;10532333;28;20215;-79
2021/03/04 12:40:52;;;;;;;16.27;6.23;;;14.90;63.00;;;;;;10549932;28;20288;-79
2021/03/04 12:45:53;;;;;;;6.97;5.10;;;14.90;60.80;;;;;;10527413;28;20238;-79
2021/03/04 12:50:56;;;;;;;10.83;5.87;;;14.90;61.60;;;;;;10528289;28;20207;-79
2021/03/04 12:55:57;;;;;;;11.47;5.53;;;14.90;62.00;;;;;;10531544;28;20246;-79
2021/03/04 13:00:59;;;;;;;8.67;5.10;;;14.80;63.70;;;;;;10526197;28;20604;-79
2021/03/04 13:06:02;;;;;;;6.43;4.13;;;14.80;63.20;;;;;;10526417;28;20437;-79
2021/03/04 13:11:03;;;;;;;6.60;5.53;;;14.80;62.40;;;;;;10530415;28;20787;-81
2021/03/04 13:16:06;;;;;;;7.30;4.73;;;14.90;64.40;;;;;;10524218;28;20311;-82
2021/03/04 13:21:08;;;;;;;11.80;5.10;;;14.90;62.80;;;;;;10522981;28;20221;-82
2021/03/04 13:26:11;;;;;;;12.73;5.37;;;14.90;61.00;;;;;;10503349;28;20219;-82
2021/03/04 13:31:13;;;;;;;8.97;5.20;;;14.90;59.80;;;;;;10514812;28;20188;-80
2021/03/04 13:36:15;;;;;;;5.80;4.43;;;14.90;61.60;;;;;;10513183;28;20223;-80
2021/03/04 13:41:17;;;;;;;8.83;4.90;;;14.90;60.80;;;;;;10504120;28;20211;-81
2021/03/04 13:46:19;;;;;;;6.23;4.27;;;15.00;62.20;;;;;;10503624;28;20714;-80
2021/03/04 13:51:22;;;;;;;6.60;4.03;;;15.00;61.20;;;;;;10509073;28;20338;-80
2021/03/04 13:56:24;;;;;;;9.70;4.87;;;14.80;59.80;;;;;;10515249;28;20212;-81
2021/03/04 14:01:26;;;;;;;11.60;5.70;;;14.70;60.60;;;;;;10510939;28;20196;-82
2021/03/04 14:06:29;;;;;;;7.17;4.00;;;14.70;59.10;;;;;;10527638;22;20240;-79
2021/03/04 14:11:31;;;;;;;6.80;4.57;;;14.70;61.40;;;;;;10512029;28;20205;-79
2021/03/04 14:16:33;;;;;;;10.43;5.20;;;14.70;60.40;;;;;;10511672;28;20228;-80
2021/03/04 14:21:35;;;;;;;4.90;3.87;;;14.60;62.90;;;;;;10511226;28;20231;-80
2021/03/04 14:26:37;;;;;;;7.10;4.97;;;14.50;63.20;;;;;;10514718;28;20228;-79
2021/03/04 14:31:39;;;;;;;9.90;4.97;;;14.50;63.40;;;;;;10506618;28;20733;-79
2021/03/04 14:36:42;;;;;;;8.47;4.47;;;14.50;62.10;;;;;;10511034;28;20598;-79
2021/03/04 14:41:43;;;;;;;7.57;4.00;;;14.50;63.00;;;;;;10523536;28;20200;-79
2021/03/04 14:46:45;;;;;;;8.33;4.57;;;14.50;61.70;;;;;;10530197;28;20706;-79
2021/03/04 14:51:47;;;;;;;7.57;5.47;;;14.40;63.30;;;;;;10526614;28;20191;-79
2021/03/04 14:56:49;;;;;;;7.27;3.90;;;14.40;63.30;;;;;;10527071;28;20243;-79
2021/03/04 15:01:51;;;;;;;12.20;4.13;;;14.30;60.30;;;;;;10528053;28;20283;-80
2021/03/04 15:06:53;;;;;;;7.60;4.67;;;14.40;61.70;;;;;;10528528;28;20262;-79
2021/03/04 15:11:55;;;;;;;12.23;4.07;;;14.30;62.20;;;;;;10510456;28;20245;-79
2021/03/04 15:16:57;;;;;;;9.00;4.17;;;14.30;60.50;;;;;;10534326;28;20255;-80
2021/03/04 15:22:00;;;;;;;5.23;3.40;;;14.20;62.00;;;;;;10537467;28;20210;-80
2021/03/04 15:27:02;;;;;;;4.63;3.83;;;14.10;64.70;;;;;;10535971;28;20595;-80
2021/03/04 15:32:06;;;;;;;8.23;3.77;;;14.10;63.10;;;;;;10517209;28;20654;-79
2021/03/04 15:37:09;;;;;;;9.67;3.60;;;14.10;61.20;;;;;;10533820;28;20730;-79
2021/03/04 15:42:13;;;;;;;6.40;4.60;;;14.10;63.10;;;;;;10538459;28;20516;-80
2021/03/04 15:47:16;;;;;;;7.10;4.53;;;14.00;64.30;;;;;;10540606;28;20219;-80
2021/03/04 15:52:19;;;;;;;7.87;4.87;;;13.90;60.90;;;;;;10524625;28;20204;-79
2021/03/04 15:57:21;;;;;;;6.47;3.90;;;13.80;61.20;;;;;;10542871;28;20593;-79
2021/03/04 16:02:23;;;;;;;4.80;3.80;;;13.70;60.80;;;;;;10534663;28;20284;-79
2021/03/04 16:07:26;;;;;;;4.63;3.40;;;13.60;63.00;;;;;;10523023;28;20334;-79
2021/03/04 16:12:29;;;;;;;5.37;4.33;;;13.60;63.90;;;;;;10525869;28;20731;-79
2021/03/04 16:17:31;;;;;;;7.97;4.77;;;13.50;61.80;;;;;;10525673;28;20643;-80
2021/03/04 16:22:36;;;;;;;7.23;4.27;;;13.40;62.90;;;;;;10534273;28;20380;-79
2021/03/04 16:27:38;;;;;;;7.10;3.90;;;13.40;62.90;;;;;;10524937;28;20211;-79
2021/03/04 16:32:40;;;;;;;21.20;5.70;;;13.50;62.80;;;;;;10518736;28;20208;-79
2021/03/04 16:37:44;;;;;;;9.60;5.33;;;13.50;63.40;;;;;;10528237;28;20277;-79
2021/03/04 16:42:47;;;;;;;13.77;5.40;;;13.40;64.80;;;;;;10523980;28;20431;-79
2021/03/04 16:47:49;;;;;;;11.00;4.90;;;13.40;65.50;;;;;;10525339;28;20278;-79
2021/03/04 16:52:54;;;;;;;11.23;5.13;;;13.30;65.10;;;;;;10508724;28;20199;-79
2021/03/04 16:57:56;;;;;;;11.40;4.80;;;13.20;66.00;;;;;;10526210;28;20646;-77
2021/03/04 17:03:02;;;;;;;12.33;5.43;;;13.10;66.10;;;;;;10508196;28;20212;-77
2021/03/04 17:08:05;;;;;;;10.17;5.00;;;13.00;67.00;;;;;;10523885;28;20276;-78
2021/03/04 17:13:07;;;;;;;6.67;5.20;;;12.90;67.50;;;;;;10514137;28;20199;-77
2021/03/04 17:18:09;;;;;;;10.93;5.10;;;12.80;69.20;;;;;;10491152;28;20234;-77
2021/03/04 17:23:12;;;;;;;8.33;5.67;;;12.70;69.10;;;;;;10508217;28;20205;-77
2021/03/04 17:28:15;;;;;;;14.43;6.13;;;12.70;68.30;;;;;;10490557;28;20310;-77
2021/03/04 17:33:18;;;;;;;12.20;6.67;;;12.70;68.00;;;;;;10512412;28;20204;-77
2021/03/04 17:38:21;;;;;;;8.73;5.00;;;12.80;68.90;;;;;;10513775;28;20220;-77
2021/03/04 17:43:22;;;;;;;11.53;6.17;;;12.80;68.60;;;;;;10487063;28;20229;-77
2021/03/04 17:48:24;;;;;;;8.40;6.00;;;12.80;69.10;;;;;;10518992;28;20215;-77
2021/03/04 17:53:27;;;;;;;8.70;6.73;;;12.80;69.10;;;;;;10510563;28;20207;-77
2021/03/04 17:58:30;;;;;;;9.23;4.67;;;12.80;69.80;;;;;;10536297;28;20641;-77
2021/03/04 18:03:32;;;;;;;16.47;7.40;;;12.80;69.10;;;;;;10507620;28;20735;-77
2021/03/04 18:08:34;;;;;;;12.27;8.00;;;12.80;69.30;;;;;;10524367;28;20244;-77
2021/03/04 18:13:36;;;;;;;11.10;7.37;;;12.70;69.10;;;;;;10524105;28;20204;-77
2021/03/04 18:18:38;;;;;;;8.63;7.50;;;12.70;69.90;;;;;;10525544;28;20590;-77
2021/03/04 18:23:40;;;;;;;11.37;8.33;;;12.70;68.50;;;;;;10508137;28;20207;-77
2021/03/04 18:28:42;;;;;;;10.67;7.10;;;12.60;69.60;;;;;;10506382;28;20311;-77
2021/03/04 18:33:44;;;;;;;9.53;7.80;;;12.60;69.00;;;;;;10526208;28;20262;-77
2021/03/04 18:38:47;;;;;;;11.37;7.77;;;12.60;68.70;;;;;;10523645;28;20323;-77
2021/03/04 18:43:48;;;;;;;9.80;7.50;;;12.50;69.50;;;;;;10525260;28;20210;-77
2021/03/04 18:48:50;;;;;;;11.17;8.33;;;12.50;70.30;;;;;;10524035;28;20699;-77
2021/03/04 18:53:54;;;;;;;14.17;7.83;;;12.50;70.70;;;;;;10524310;28;20214;-78
2021/03/04 18:58:55;;;;;;;11.33;7.80;;;12.50;71.80;;;;;;10535781;28;20314;-77
2021/03/04 19:03:57;;;;;;;9.33;6.33;;;12.50;71.60;;;;;;10536879;28;20203;-77
2021/03/04 19:09:00;;;;;;;9.13;5.70;;;12.50;73.40;;;;;;10536810;28;20658;-77
2021/03/04 19:14:01;;;;;;;6.40;5.20;;;12.40;76.00;;;;;;10533457;28;20204;-77
2021/03/04 19:19:04;;;;;;;6.43;5.83;;;12.30;81.50;;;;;;10535987;28;20318;-77
2021/03/04 19:24:08;;;;;;;6.50;5.90;;;12.20;84.40;;;;;;10538953;28;20203;-76
2021/03/04 19:29:09;;;;;;;6.13;5.13;;;12.00;85.50;;;;;;10521719;28;20479;-77
2021/03/04 19:34:11;;;;;;;6.77;4.97;;;11.90;86.10;;;;;;10545418;28;20211;-76
2021/03/04 19:39:13;;;;;;;6.10;5.57;;;11.80;86.20;;;;;;10554021;28;20337;-78
2021/03/04 19:44:15;;;;;;;5.57;5.00;;;11.80;86.10;;;;;;10537363;28;20276;-78
2021/03/04 19:49:17;;;;;;;9.03;4.53;;;11.70;86.50;;;;;;10537070;28;20234;-79
2021/03/04 19:54:19;;;;;;;5.70;4.20;;;11.60;86.10;;;;;;10538140;28;20342;-78
2021/03/04 19:59:22;;;;;;;5.03;4.50;;;11.40;86.30;;;;;;10537456;28;20319;-77
2021/03/04 20:04:24;;;;;;;8.63;5.10;;;11.40;86.20;;;;;;10533877;28;20567;-78
2021/03/04 20:09:26;;;;;;;5.57;4.40;;;11.30;86.40;;;;;;10552205;22;20236;-79
2021/03/04 20:14:28;;;;;;;4.80;4.40;;;11.30;86.00;;;;;;10539767;28;20203;-80
2021/03/04 20:19:31;;;;;;;4.97;4.03;;;11.30;85.80;;;;;;10545316;28;20219;-80
2021/03/04 20:24:33;;;;;;;4.23;3.80;;;11.30;85.40;;;;;;10548446;28;20230;-80
2021/03/04 20:29:35;;;;;;;4.47;3.30;;;11.30;85.50;;;;;;10542428;28;20306;-80
2021/03/04 20:34:38;;;;;;;4.87;3.60;;;11.30;85.60;;;;;;10549327;28;20270;-80
2021/03/04 20:39:41;;;;;;;4.37;3.27;;;11.30;86.00;;;;;;10537633;28;20227;-80
2021/03/04 20:44:42;;;;;;;5.60;3.77;;;11.20;85.90;;;;;;10544411;28;20204;-80
2021/03/04 20:49:44;;;;;;;4.20;3.90;;;11.20;87.00;;;;;;10536236;28;20235;-80
2021/03/04 20:54:46;;;;;;;3.87;3.57;;;11.30;87.80;;;;;;10525108;28;20207;-80
2021/03/04 20:59:48;;;;;;;5.60;3.67;;;11.20;89.60;;;;;;10520377;28;20220;-80
2021/03/04 21:04:50;;;;;;;4.30;3.90;;;11.20;90.30;;;;;;10546697;28;20662;-80
2021/03/04 21:09:52;;;;;;;4.47;3.90;;;11.20;90.20;;;;;;10534644;28;20228;-80
2021/03/04 21:14:54;;;;;;;5.27;4.77;;;11.10;90.60;;;;;;10533899;28;20202;-80
2021/03/04 21:19:55;;;;;;;6.90;4.80;;;11.10;91.20;;;;;;10536597;28;20230;-80
2021/03/04 21:24:58;;;;;;;5.53;5.03;;;11.00;91.30;;;;;;10543399;28;20237;-80
2021/03/04 21:29:59;;;;;;;4.47;4.07;;;11.00;91.30;;;;;;10544703;28;20220;-80
2021/03/04 21:35:01;;;;;;;6.20;4.70;;;11.00;91.10;;;;;;10538789;28;20689;-80
2021/03/04 21:40:05;;;;;;;7.23;4.80;;;10.90;91.40;;;;;;10541358;28;20227;-80
2021/03/04 21:45:08;;;;;;;5.47;4.97;;;10.80;91.90;;;;;;10540925;28;20199;-79
2021/03/04 21:50:11;;;;;;;5.83;5.23;;;10.70;92.60;;;;;;10523152;28;20272;-79
2021/03/04 21:55:14;;;;;;;6.97;4.93;;;10.70;93.20;;;;;;10523983;28;20193;-79
2021/03/04 22:00:16;;;;;;;5.77;5.17;;;10.60;94.10;;;;;;10515679;28;20525;-79
2021/03/04 22:05:21;;;;;;;4.87;4.40;;;10.40;94.70;;;;;;10507360;28;20220;-78
2021/03/04 22:10:24;;;;;;;5.57;5.07;;;10.30;95.20;;;;;;10512444;28;20602;-78
2021/03/04 22:15:26;;;;;;;5.63;5.13;;;10.10;95.50;;;;;;10493111;28;20204;-78
2021/03/04 22:20:27;;;;;;;5.73;5.23;;;10.00;96.10;;;;;;10518006;28;20230;-79
2021/03/04 22:25:30;;;;;;;5.97;5.47;;;10.10;96.40;;;;;;10541257;28;20202;-79
2021/03/04 22:30:31;;;;;;;6.57;5.63;;;10.00;96.30;;;;;;10529397;28;20453;-79
2021/03/04 22:35:34;;;;;;;5.83;5.00;;;10.00;96.50;;;;;;10527539;28;20214;-79
2021/03/04 22:40:36;;;;;;;6.70;5.30;;;10.00;96.40;;;;;;10533303;28;20328;-79
2021/03/04 22:45:38;;;;;;;6.50;5.73;;;10.10;96.50;;;;;;10530990;28;20199;-79
2021/03/04 22:50:40;;;;;;;5.63;5.13;;;10.10;96.30;;;;;;10529524;28;20275;-79
2021/03/04 22:55:42;;;;;;;6.23;5.63;;;10.20;96.30;;;;;;10526131;28;20218;-79
2021/03/04 23:00:44;;;;;;;7.40;6.57;;;10.20;96.40;;;;;;10525729;28;20239;-79
2021/03/04 23:05:45;;;;;;;7.13;6.40;;;10.30;96.10;;;;;;10524196;28;20353;-79
2021/03/04 23:10:51;;;;;;;7.23;6.53;;;10.30;96.00;;;;;;10508878;28;20308;-79
2021/03/04 23:15:52;;;;;;;7.67;6.37;;;10.40;95.40;;;;;;10524409;28;20229;-79
2021/03/04 23:21:11;;;;;;;7.13;6.40;;;10.40;95.60;;;;;;10509205;28;20231;-79
2021/03/04 23:26:45;;;;;;;7.40;6.70;;;10.40;96.10;;;;;;10529749;28;20860;-79
2021/03/04 23:31:47;;;;;;;6.30;5.70;;;10.40;96.00;;;;;;10528312;28;20766;-79
2021/03/04 23:36:49;;;;;;;7.20;6.50;;;10.40;95.80;;;;;;10526073;28;20219;-79
2021/03/04 23:41:56;;;;;;;8.70;7.43;;;10.40;96.00;;;;;;10530395;28;20210;-79
2021/03/04 23:46:58;;;;;;;8.10;7.40;;;10.40;96.10;;;;;;10525618;28;20220;-79
2021/03/04 23:52:00;;;;;;;7.90;6.90;;;10.40;96.10;;;;;;10525835;28;20196;-79
2021/03/04 23:57:02;;;;;;;8.87;8.07;;;10.40;96.10;;;;;;10531963;28;20226;-79
